createdAt,value
2015-10-30T07:33:23.977Z,54
2015-10-30T07:33:35.898Z,52
2015-10-30T07:33:48.711Z,52
2015-10-30T07:34:01.102Z,56
2015-10-30T07:34:13.058Z,55
2015-10-30T07:34:27.417Z,52
2015-10-30T07:34:39.808Z,53
2015-10-30T07:38:15.116Z,49
2015-10-30T07:38:28.037Z,49
2015-10-30T07:38:40.475Z,48
2015-10-30T07:38:53.069Z,52
2015-10-30T07:39:06.008Z,47
2015-10-30T07:39:17.977Z,47
2015-10-30T07:39:30.524Z,46
2015-10-30T07:39:42.883Z,46
2015-10-30T07:39:54.868Z,46
2015-10-30T07:40:06.838Z,46
2015-10-30T07:40:18.791Z,46
2015-10-30T07:40:30.791Z,45
2015-10-30T07:40:42.745Z,45
2015-10-30T07:40:57.870Z,45
2015-10-30T07:41:09.810Z,45
2015-10-30T07:41:28.154Z,45
2015-10-30T07:41:40.732Z,45
2015-10-30T07:41:52.873Z,44
2015-10-30T13:00:48.842Z,40
2015-10-30T13:01:01.717Z,40
2015-10-30T13:01:14.686Z,42
2015-10-30T13:01:27.048Z,40
2015-10-30T13:01:39.017Z,41
2015-10-30T13:01:51.439Z,40
2015-10-30T13:02:04.485Z,40
2015-10-30T13:02:16.470Z,41
2015-10-30T13:02:28.442Z,41
2015-10-30T13:02:41.176Z,41
2015-10-30T13:02:53.707Z,40
2015-10-30T13:03:05.582Z,40
2015-10-30T13:03:17.535Z,40
2015-10-30T13:03:29.490Z,41
2015-10-30T13:03:41.444Z,40
2015-10-30T13:03:53.428Z,41
2015-10-30T13:04:06.131Z,40
2015-10-30T13:04:17.975Z,40
2015-10-30T13:04:29.947Z,40
2015-10-30T13:04:44.931Z,40
2015-10-30T13:04:56.806Z,41
2015-10-30T13:05:09.056Z,42
2015-10-30T13:05:21.697Z,40
2015-10-30T13:05:33.637Z,40
2015-10-30T13:05:46.262Z,40
2015-10-30T13:05:58.137Z,40
2015-10-30T13:06:10.637Z,40
2015-10-30T13:06:22.684Z,41
2015-10-30T13:06:34.686Z,40
2015-10-30T13:06:47.545Z,40
2015-10-30T13:07:00.061Z,40
2015-10-30T13:07:12.389Z,40
2015-10-30T13:07:24.858Z,40
2015-10-30T13:07:37.251Z,40
2015-10-30T13:07:49.689Z,41
2015-10-30T13:08:01.658Z,41
2015-10-30T13:08:14.173Z,40
2015-10-30T13:08:26.064Z,40
2015-10-30T13:08:38.082Z,40
2015-10-30T13:08:50.035Z,40
2015-10-30T13:09:01.972Z,40
2015-10-30T13:09:13.957Z,40
2015-10-30T13:09:25.941Z,41
2015-10-30T13:09:37.819Z,40
2015-10-30T13:09:50.756Z,40
2015-10-30T13:10:02.694Z,40
2015-10-30T13:10:15.303Z,40
2015-10-30T13:10:27.244Z,41
2015-10-30T13:10:39.197Z,40
2015-10-30T13:10:51.556Z,40
2015-10-30T13:11:03.541Z,40
2015-10-30T13:11:16.025Z,40
2015-10-30T13:11:27.934Z,40
2015-10-30T13:11:39.856Z,40
2015-10-30T13:11:56.356Z,41
2015-10-30T13:12:08.372Z,41
2015-10-30T13:12:20.341Z,40
2015-10-30T13:12:32.249Z,41
2015-10-30T13:12:44.780Z,40
2015-10-30T13:12:56.718Z,41
2015-10-30T13:13:09.671Z,40
2015-10-30T13:13:21.936Z,40
2015-10-30T13:13:34.221Z,41
2015-10-30T13:13:46.158Z,40
2015-10-30T13:13:58.111Z,40
2015-10-30T13:14:10.049Z,40
2015-10-30T13:14:25.439Z,40
2015-10-30T13:14:38.083Z,41
2015-10-30T13:14:50.614Z,40
2015-10-30T13:15:03.020Z,40
2015-10-30T13:15:15.317Z,40
2015-10-30T13:15:27.804Z,40
2015-10-30T13:15:39.694Z,40
2015-10-30T13:15:51.663Z,40
2015-10-30T13:16:03.522Z,40
2015-10-30T13:16:20.726Z,40
2015-10-30T13:16:33.650Z,42
2015-10-30T13:16:45.619Z,41
2015-10-30T13:16:58.104Z,40
2015-10-30T13:17:10.604Z,40
2015-10-30T13:17:22.604Z,40
2015-10-30T13:17:35.106Z,40
2015-10-30T13:17:47.481Z,40
2015-10-30T13:17:59.481Z,40
2015-10-30T13:18:11.824Z,40
2015-10-30T13:18:23.746Z,40
2015-10-30T13:18:35.952Z,40
2015-10-30T13:18:48.202Z,41
2015-10-30T13:19:00.421Z,40
2015-10-30T13:19:12.280Z,41
2015-10-30T13:19:24.530Z,41
2015-10-30T13:19:37.549Z,40
2015-10-30T13:19:49.658Z,41
2015-10-30T13:20:01.612Z,40
2015-10-30T13:20:13.877Z,40
2015-10-30T13:20:25.752Z,40
2015-10-30T13:20:38.865Z,40
2015-10-30T13:20:50.786Z,40
2015-10-30T13:21:04.286Z,40
2015-10-30T13:21:16.208Z,40
2015-10-30T13:21:28.115Z,40
2015-10-30T13:21:40.102Z,40
2015-10-30T13:21:53.118Z,40
2015-10-30T13:22:05.477Z,41
2015-10-30T13:22:18.993Z,41
2015-10-30T13:22:30.979Z,41
2015-10-30T13:22:44.010Z,40
2015-10-30T13:22:55.963Z,41
2015-10-30T13:23:10.901Z,40
2015-10-30T13:23:22.823Z,40
2015-10-30T13:23:35.966Z,41
2015-10-30T13:23:52.451Z,40
2015-10-30T13:24:04.388Z,40
2015-10-30T13:24:17.044Z,40
2015-10-30T13:24:29.060Z,40
2015-10-30T13:24:41.031Z,40
2015-10-30T13:24:53.109Z,40
2015-10-30T13:25:05.687Z,41
2015-10-30T13:25:17.734Z,40
2015-10-30T13:25:30.190Z,40
2015-10-30T13:25:42.409Z,40
2015-10-30T13:25:54.284Z,40
2015-10-30T13:26:06.221Z,40
2015-10-30T13:26:18.190Z,40
2015-10-30T13:26:33.006Z,40
2015-10-30T13:26:45.474Z,40
2015-10-30T13:26:57.459Z,40
2015-10-30T13:27:09.834Z,40
2015-10-30T13:27:21.756Z,40
2015-10-30T13:27:33.727Z,41
2015-10-30T13:27:45.602Z,40
2015-10-30T13:27:57.555Z,40
2015-10-30T13:28:10.384Z,41
2015-10-30T13:28:23.399Z,40
2015-10-30T13:28:38.917Z,40
2015-10-30T13:28:55.589Z,40
2015-10-30T13:29:07.542Z,40
2015-10-30T13:29:19.479Z,40
2015-10-30T13:29:32.343Z,40
2015-10-30T13:29:44.280Z,40
2015-10-30T13:29:56.155Z,41
2015-10-30T13:30:09.108Z,40
2015-10-30T13:30:21.015Z,41
2015-10-30T13:30:33.392Z,40
2015-10-30T13:30:45.329Z,40
2015-10-30T13:30:57.282Z,40
2015-10-30T13:31:09.298Z,40
2015-10-30T13:31:21.298Z,40
2015-10-30T13:31:33.222Z,40
2015-10-30T13:31:45.737Z,40
2015-10-30T13:31:57.675Z,40
2015-10-30T13:32:09.956Z,40
2015-10-30T13:32:22.847Z,40
2015-10-30T13:32:35.115Z,40
2015-10-30T13:32:47.053Z,42
2015-10-30T13:32:59.662Z,40
2015-10-30T13:33:11.709Z,41
2015-10-30T13:33:23.709Z,41
2015-10-30T13:33:37.555Z,40
2015-10-30T13:33:49.664Z,41
2015-10-30T13:34:02.102Z,40
2015-10-30T13:34:14.899Z,40
2015-10-30T13:34:26.945Z,41
2015-10-30T13:34:38.824Z,40
2015-10-30T13:34:51.871Z,40
2015-10-30T13:35:07.574Z,41
2015-10-30T13:35:19.965Z,40
2015-10-30T13:35:31.998Z,41
2015-10-30T13:35:44.639Z,40
2015-10-30T13:35:57.139Z,40
2015-10-30T13:36:09.905Z,40
2015-10-30T13:36:21.826Z,41
2015-10-30T13:36:34.392Z,40
2015-10-30T13:36:51.361Z,40
2015-10-30T13:37:06.361Z,40
2015-10-30T13:37:21.126Z,40
2015-10-30T13:37:35.536Z,40
2015-10-30T13:37:48.473Z,40
2015-10-30T13:38:03.317Z,40
2015-10-30T13:38:16.895Z,40
2015-10-30T13:38:32.960Z,40
2015-10-30T13:38:49.226Z,40
2015-10-30T13:39:02.351Z,41
2015-10-30T13:39:16.601Z,40
2015-10-30T13:39:29.695Z,40
2015-10-30T13:39:42.994Z,40
2015-10-30T13:39:56.572Z,40
2015-10-30T13:40:09.181Z,40
2015-10-30T13:53:08.451Z,41
2015-10-30T13:53:20.779Z,41
2015-10-30T13:53:34.826Z,40
2015-10-30T13:53:48.485Z,40
2015-10-30T13:54:01.954Z,40
2015-10-30T13:58:06.902Z,40
2015-10-30T13:58:23.027Z,40
2015-10-30T13:58:36.730Z,40
2015-10-30T13:58:49.076Z,40
2015-10-30T13:59:02.310Z,41
2015-10-30T13:59:15.357Z,40
2015-10-30T13:59:28.935Z,39
2015-10-30T13:59:41.248Z,39
2015-10-30T13:59:54.454Z,39
2015-10-30T14:00:07.579Z,39
2015-10-30T14:00:20.782Z,39
2015-10-30T14:00:34.188Z,41
2015-10-30T14:00:46.473Z,39
2015-10-30T14:00:58.629Z,40
2015-10-30T14:01:12.566Z,41
2015-10-30T14:09:42.369Z,41
2015-10-30T14:09:55.715Z,40
2015-10-30T14:10:08.965Z,40
2015-10-30T14:10:23.403Z,39
2015-10-30T14:10:36.356Z,39
2015-10-30T14:10:59.640Z,39
2015-10-30T14:11:12.312Z,39
2015-10-30T14:11:25.484Z,42
2015-10-30T14:11:38.953Z,40
2015-10-30T14:11:51.846Z,40
2015-10-30T14:12:05.362Z,39
2015-10-30T14:12:20.018Z,40
2015-10-30T14:12:34.471Z,39
2015-10-30T14:12:47.834Z,41
2015-10-30T14:13:01.318Z,41
2015-10-30T14:13:18.334Z,39
2015-10-30T14:13:33.771Z,39
2015-10-30T14:13:47.414Z,41
2015-10-30T14:13:59.976Z,41
2015-10-30T14:14:12.383Z,40
2015-10-30T14:14:24.883Z,39
2015-10-30T14:14:38.117Z,40
2015-10-30T14:14:51.666Z,41
2015-10-30T14:15:08.885Z,40
2015-10-30T14:15:21.619Z,40
2015-10-30T14:15:34.525Z,39
2015-10-30T14:15:49.263Z,39
2015-10-30T14:16:02.044Z,39
2015-10-30T14:16:14.856Z,40
2015-10-30T14:16:29.794Z,41
2015-10-30T14:16:44.044Z,39
2015-10-30T14:16:57.016Z,41
2015-10-30T14:17:10.312Z,39
2015-10-30T14:17:23.453Z,42
2015-10-30T14:17:40.047Z,39
2015-10-30T14:17:52.956Z,40
2015-10-30T14:18:05.800Z,40
2015-10-30T14:18:19.378Z,39
2015-10-30T14:18:32.081Z,39
2015-10-30T14:18:45.003Z,39
2015-10-30T14:18:56.912Z,41
2015-10-30T14:19:10.037Z,41
2015-10-30T14:19:22.522Z,39
2015-10-30T14:19:34.459Z,41
2015-10-30T14:19:46.490Z,39
2015-10-30T14:19:58.867Z,41
2015-10-30T14:20:14.977Z,39
2015-10-30T14:20:27.320Z,39
2015-10-30T14:20:39.977Z,41
2015-10-30T14:20:52.792Z,39
2015-10-30T14:21:05.823Z,41
2015-10-30T14:21:17.808Z,39
2015-10-30T14:21:29.808Z,39
2015-10-30T14:21:42.120Z,39
2015-10-30T14:21:59.044Z,41
2015-10-30T14:22:11.544Z,39
2015-10-30T14:22:23.857Z,39
2015-10-30T14:22:43.029Z,39
2015-10-30T14:22:55.110Z,39
2015-10-30T14:23:07.094Z,40
2015-10-30T14:23:20.922Z,39
2015-10-30T14:28:05.202Z,40
2015-10-30T14:28:18.139Z,41
2015-10-30T14:28:39.171Z,41
2015-10-30T14:28:53.610Z,41
2015-10-30T14:29:11.282Z,39
2015-10-30T14:29:25.704Z,40
2015-10-30T14:29:40.657Z,39
2015-10-30T14:29:54.832Z,40
2015-10-30T14:30:12.191Z,39
2015-10-30T14:30:25.847Z,40
2015-10-30T14:30:41.972Z,40
2015-10-30T14:30:54.413Z,41
2015-10-30T14:31:06.460Z,39
2015-10-30T14:31:18.991Z,41
2015-10-30T14:31:31.132Z,39
2015-10-30T14:31:44.022Z,41
2015-10-30T14:31:56.150Z,39
2015-10-30T14:32:08.807Z,39
2015-10-30T14:32:26.494Z,41
2015-10-30T14:32:42.557Z,39
2015-10-30T14:32:54.996Z,41
2015-10-30T14:33:07.855Z,41
2015-10-30T14:33:20.402Z,39
2015-10-30T14:33:33.527Z,39
2015-10-30T14:33:45.590Z,39
2015-10-30T14:33:58.030Z,41
2015-10-30T14:34:10.202Z,39
2015-10-30T14:34:22.171Z,39
2015-10-30T14:34:34.921Z,40
2015-10-30T14:34:47.343Z,41
2015-10-30T14:34:59.408Z,41
2015-10-30T14:35:12.393Z,39
2015-10-30T14:35:25.611Z,39
2015-10-30T14:35:38.236Z,39
2015-10-30T14:35:51.158Z,39
2015-10-30T14:36:03.864Z,39
2015-10-30T14:36:16.974Z,39
2015-10-30T14:36:29.896Z,39
2015-10-30T14:36:42.114Z,41
2015-10-30T14:36:54.289Z,39
2015-10-30T14:37:07.227Z,40
2015-10-30T14:37:19.180Z,39
2015-10-30T14:37:32.321Z,39
2015-10-30T14:37:44.414Z,39
2015-10-30T14:37:56.354Z,39
2015-10-30T14:38:08.713Z,39
2015-10-30T14:38:22.088Z,41
2015-10-30T14:38:36.166Z,39
2015-10-30T14:38:50.010Z,39
2015-10-30T14:39:03.560Z,39
2015-10-30T14:39:18.357Z,40
2015-10-30T14:39:34.091Z,40
